Morgantown Municipal Walter L. Bill Hart Field Morgantown US
ICAO: KMGW
IATA: MGW
Category: Medium
Scheduled Services: Yes

Elevation: 1248 ft
TransAlt. 18000 ft.

Airport Communications:
CLARKSBURG APP/DEP:121.15
ASOS:120.675
CTAF:125.1
GND:121.7
ELKINS RDO:122.6
TWR:125.1
UNICOM:122.95

KMGW Zoom In..

If you have problems with the map follow the link
https://www.worldairports.se/pages/airport.php?
ICAO=KMGW

Runways:

(A) RW 18 length 5199 ft width 150 ft
ILS 108.50 / hdg 181

(B) RW 36 length 5199 ft width 150 ft
---- / hdg 1

Location; KMGW
Day. 18 / Time. 06.53 Zulu
* Altimeter: 30.38
* Temperature: 05° c. 41°f.
* Wind from: 300° Speed 04 kn.
Dewpoint: -01° c.
Visibility: 10 Statute Miles.
Clouds: Clear (automated report).

KMGW 180653Z AUTO 30004KT 10SM CLR 05/M01 A3038 RMK AO2 SLP291 T00501006


Wind From 300°
Speed 04 kn.

 
 
jpsmedia.com for Web Design worldairports.se 2018   terms of use